sensor_id;sensor_type;location;lat;lon;timestamp;P1;durP1;ratioP1;P2;durP2;ratioP2
58784;SDS011;44557;51.862;19.378;2023-07-13T00:00:17;9.10;;;4.70;;
58784;SDS011;44557;51.862;19.378;2023-07-13T00:02:39;9.20;;;5.00;;
58784;SDS011;44557;51.862;19.378;2023-07-13T00:04:41;9.20;;;4.90;;
58784;SDS011;44557;51.862;19.378;2023-07-13T00:06:43;9.30;;;4.70;;
58784;SDS011;44557;51.862;19.378;2023-07-13T00:08:46;8.00;;;4.90;;
58784;SDS011;44557;51.862;19.378;2023-07-13T00:10:49;9.10;;;4.90;;
58784;SDS011;44557;51.862;19.378;2023-07-13T00:12:55;9.70;;;5.00;;
58784;SDS011;44557;51.862;19.378;2023-07-13T00:15:02;7.10;;;4.60;;
58784;SDS011;44557;51.862;19.378;2023-07-13T00:17:07;9.20;;;5.60;;
58784;SDS011;44557;51.862;19.378;2023-07-13T00:19:10;10.50;;;5.10;;
58784;SDS011;44557;51.862;19.378;2023-07-13T00:21:14;10.50;;;6.20;;
58784;SDS011;44557;51.862;19.378;2023-07-13T00:23:15;12.30;;;8.30;;
58784;SDS011;44557;51.862;19.378;2023-07-13T00:25:18;11.90;;;7.50;;
58784;SDS011;44557;51.862;19.378;2023-07-13T00:27:21;12.50;;;6.90;;
58784;SDS011;44557;51.862;19.378;2023-07-13T00:29:23;10.30;;;6.60;;
58784;SDS011;44557;51.862;19.378;2023-07-13T00:31:24;10.40;;;7.10;;
58784;SDS011;44557;51.862;19.378;2023-07-13T00:33:27;10.60;;;6.80;;
58784;SDS011;44557;51.862;19.378;2023-07-13T00:35:30;10.60;;;6.70;;
58784;SDS011;44557;51.862;19.378;2023-07-13T00:37:32;12.30;;;6.80;;
58784;SDS011;44557;51.862;19.378;2023-07-13T00:39:37;10.10;;;6.80;;
58784;SDS011;44557;51.862;19.378;2023-07-13T00:41:39;10.00;;;7.20;;
58784;SDS011;44557;51.862;19.378;2023-07-13T00:43:41;8.40;;;6.20;;
58784;SDS011;44557;51.862;19.378;2023-07-13T00:47:47;9.70;;;6.90;;
58784;SDS011;44557;51.862;19.378;2023-07-13T00:49:48;10.50;;;6.30;;
58784;SDS011;44557;51.862;19.378;2023-07-13T00:51:55;10.50;;;6.80;;
58784;SDS011;44557;51.862;19.378;2023-07-13T00:54:24;10.70;;;7.20;;
58784;SDS011;44557;51.862;19.378;2023-07-13T00:56:31;9.30;;;6.40;;
58784;SDS011;44557;51.862;19.378;2023-07-13T00:58:34;10.30;;;6.40;;
58784;SDS011;44557;51.862;19.378;2023-07-13T01:00:36;10.50;;;6.50;;
58784;SDS011;44557;51.862;19.378;2023-07-13T01:02:41;9.40;;;6.00;;
58784;SDS011;44557;51.862;19.378;2023-07-13T01:04:45;8.00;;;5.80;;
58784;SDS011;44557;51.862;19.378;2023-07-13T01:06:46;9.60;;;5.80;;
58784;SDS011;44557;51.862;19.378;2023-07-13T01:08:48;8.00;;;5.50;;
58784;SDS011;44557;51.862;19.378;2023-07-13T01:10:51;9.80;;;5.50;;
58784;SDS011;44557;51.862;19.378;2023-07-13T01:12:53;9.50;;;5.60;;
58784;SDS011;44557;51.862;19.378;2023-07-13T01:15:00;9.60;;;5.40;;
58784;SDS011;44557;51.862;19.378;2023-07-13T01:17:02;9.60;;;5.90;;
58784;SDS011;44557;51.862;19.378;2023-07-13T01:19:07;9.20;;;5.60;;
58784;SDS011;44557;51.862;19.378;2023-07-13T01:21:18;8.80;;;5.40;;
58784;SDS011;44557;51.862;19.378;2023-07-13T01:23:20;9.30;;;6.00;;
58784;SDS011;44557;51.862;19.378;2023-07-13T01:25:23;9.20;;;5.50;;
58784;SDS011;44557;51.862;19.378;2023-07-13T01:27:25;10.10;;;5.40;;
58784;SDS011;44557;51.862;19.378;2023-07-13T01:29:27;10.10;;;6.10;;
58784;SDS011;44557;51.862;19.378;2023-07-13T01:31:29;8.40;;;5.30;;
58784;SDS011;44557;51.862;19.378;2023-07-13T01:33:31;10.30;;;5.60;;
58784;SDS011;44557;51.862;19.378;2023-07-13T01:35:33;8.40;;;5.30;;
58784;SDS011;44557;51.862;19.378;2023-07-13T01:37:35;9.00;;;5.20;;
58784;SDS011;44557;51.862;19.378;2023-07-13T01:39:37;8.10;;;4.90;;
58784;SDS011;44557;51.862;19.378;2023-07-13T01:41:40;7.10;;;4.80;;
58784;SDS011;44557;51.862;19.378;2023-07-13T01:43:42;8.50;;;5.30;;
58784;SDS011;44557;51.862;19.378;2023-07-13T01:45:44;10.30;;;5.20;;
58784;SDS011;44557;51.862;19.378;2023-07-13T01:47:47;9.00;;;5.40;;
58784;SDS011;44557;51.862;19.378;2023-07-13T01:49:49;7.80;;;5.20;;
58784;SDS011;44557;51.862;19.378;2023-07-13T01:51:53;7.70;;;5.00;;
58784;SDS011;44557;51.862;19.378;2023-07-13T01:53:55;8.60;;;5.40;;
58784;SDS011;44557;51.862;19.378;2023-07-13T01:55:57;8.90;;;5.60;;
58784;SDS011;44557;51.862;19.378;2023-07-13T01:57:59;8.80;;;5.20;;
58784;SDS011;44557;51.862;19.378;2023-07-13T02:00:03;7.10;;;5.10;;
58784;SDS011;44557;51.862;19.378;2023-07-13T02:02:07;9.20;;;5.50;;
58784;SDS011;44557;51.862;19.378;2023-07-13T02:04:09;9.90;;;6.00;;
58784;SDS011;44557;51.862;19.378;2023-07-13T02:06:12;10.50;;;5.80;;
58784;SDS011;44557;51.862;19.378;2023-07-13T02:08:14;7.60;;;5.50;;
58784;SDS011;44557;51.862;19.378;2023-07-13T02:10:16;7.90;;;5.60;;
58784;SDS011;44557;51.862;19.378;2023-07-13T02:12:19;9.20;;;5.40;;
58784;SDS011;44557;51.862;19.378;2023-07-13T02:14:21;8.60;;;5.90;;
58784;SDS011;44557;51.862;19.378;2023-07-13T02:16:22;9.70;;;5.70;;
58784;SDS011;44557;51.862;19.378;2023-07-13T02:18:25;7.70;;;5.20;;
58784;SDS011;44557;51.862;19.378;2023-07-13T02:20:27;9.80;;;5.80;;
58784;SDS011;44557;51.862;19.378;2023-07-13T02:22:29;9.10;;;5.60;;
58784;SDS011;44557;51.862;19.378;2023-07-13T02:24:31;8.10;;;5.70;;
58784;SDS011;44557;51.862;19.378;2023-07-13T02:26:33;9.20;;;5.90;;
58784;SDS011;44557;51.862;19.378;2023-07-13T02:28:35;10.50;;;6.50;;
58784;SDS011;44557;51.862;19.378;2023-07-13T02:30:37;10.40;;;6.30;;
58784;SDS011;44557;51.862;19.378;2023-07-13T02:32:40;9.00;;;6.20;;
58784;SDS011;44557;51.862;19.378;2023-07-13T02:34:42;9.50;;;6.10;;
58784;SDS011;44557;51.862;19.378;2023-07-13T02:36:44;10.00;;;6.60;;
58784;SDS011;44557;51.862;19.378;2023-07-13T02:38:46;11.70;;;7.30;;
58784;SDS011;44557;51.862;19.378;2023-07-13T02:40:48;12.70;;;6.80;;
58784;SDS011;44557;51.862;19.378;2023-07-13T02:42:50;13.80;;;7.80;;
58784;SDS011;44557;51.862;19.378;2023-07-13T02:44:52;13.20;;;7.00;;
58784;SDS011;44557;51.862;19.378;2023-07-13T02:46:53;12.30;;;7.40;;
58784;SDS011;44557;51.862;19.378;2023-07-13T02:48:55;11.10;;;7.40;;
58784;SDS011;44557;51.862;19.378;2023-07-13T02:50:57;12.80;;;7.50;;
58784;SDS011;44557;51.862;19.378;2023-07-13T02:52:58;14.40;;;7.60;;
58784;SDS011;44557;51.862;19.378;2023-07-13T02:55:00;10.40;;;6.90;;
58784;SDS011;44557;51.862;19.378;2023-07-13T02:57:02;11.80;;;7.00;;
58784;SDS011;44557;51.862;19.378;2023-07-13T02:59:05;11.40;;;7.70;;
58784;SDS011;44557;51.862;19.378;2023-07-13T03:01:10;12.50;;;7.90;;
58784;SDS011;44557;51.862;19.378;2023-07-13T03:03:15;12.50;;;7.80;;
58784;SDS011;44557;51.862;19.378;2023-07-13T03:05:17;14.30;;;8.80;;
58784;SDS011;44557;51.862;19.378;2023-07-13T03:07:19;13.10;;;8.60;;
58784;SDS011;44557;51.862;19.378;2023-07-13T03:09:22;13.90;;;7.90;;
58784;SDS011;44557;51.862;19.378;2023-07-13T03:11:25;14.20;;;7.80;;
58784;SDS011;44557;51.862;19.378;2023-07-13T03:13:28;13.50;;;7.60;;
58784;SDS011;44557;51.862;19.378;2023-07-13T03:15:31;12.10;;;7.70;;
58784;SDS011;44557;51.862;19.378;2023-07-13T03:17:32;16.10;;;7.40;;
58784;SDS011;44557;51.862;19.378;2023-07-13T03:19:35;14.00;;;7.90;;
58784;SDS011;44557;51.862;19.378;2023-07-13T03:21:37;13.80;;;7.70;;
58784;SDS011;44557;51.862;19.378;2023-07-13T03:23:39;13.00;;;8.00;;
58784;SDS011;44557;51.862;19.378;2023-07-13T03:25:40;11.50;;;7.70;;
58784;SDS011;44557;51.862;19.378;2023-07-13T03:27:42;13.40;;;7.50;;
58784;SDS011;44557;51.862;19.378;2023-07-13T03:29:44;11.90;;;7.00;;
58784;SDS011;44557;51.862;19.378;2023-07-13T03:31:47;12.90;;;7.60;;
58784;SDS011;44557;51.862;19.378;2023-07-13T03:33:49;11.70;;;8.20;;
58784;SDS011;44557;51.862;19.378;2023-07-13T03:35:51;12.30;;;7.90;;
58784;SDS011;44557;51.862;19.378;2023-07-13T03:37:53;11.90;;;8.00;;
58784;SDS011;44557;51.862;19.378;2023-07-13T03:39:54;14.70;;;9.00;;
58784;SDS011;44557;51.862;19.378;2023-07-13T03:41:57;12.80;;;8.80;;
58784;SDS011;44557;51.862;19.378;2023-07-13T03:43:59;14.90;;;8.50;;
58784;SDS011;44557;51.862;19.378;2023-07-13T03:46:01;14.60;;;9.70;;
58784;SDS011;44557;51.862;19.378;2023-07-13T03:48:03;13.80;;;9.70;;
58784;SDS011;44557;51.862;19.378;2023-07-13T03:50:06;18.60;;;10.50;;
58784;SDS011;44557;51.862;19.378;2023-07-13T03:52:08;16.20;;;9.50;;
58784;SDS011;44557;51.862;19.378;2023-07-13T03:54:10;15.50;;;10.30;;
58784;SDS011;44557;51.862;19.378;2023-07-13T03:56:12;16.00;;;10.50;;
58784;SDS011;44557;51.862;19.378;2023-07-13T03:58:25;12.30;;;9.40;;
58784;SDS011;44557;51.862;19.378;2023-07-13T04:00:37;12.40;;;9.00;;
58784;SDS011;44557;51.862;19.378;2023-07-13T04:02:38;15.00;;;8.90;;
58784;SDS011;44557;51.862;19.378;2023-07-13T04:04:40;15.20;;;9.80;;
58784;SDS011;44557;51.862;19.378;2023-07-13T04:06:42;13.80;;;8.60;;
58784;SDS011;44557;51.862;19.378;2023-07-13T04:08:44;14.70;;;9.00;;
58784;SDS011;44557;51.862;19.378;2023-07-13T04:10:46;14.80;;;8.70;;
58784;SDS011;44557;51.862;19.378;2023-07-13T04:12:48;13.20;;;8.80;;
58784;SDS011;44557;51.862;19.378;2023-07-13T04:14:50;14.70;;;9.50;;
58784;SDS011;44557;51.862;19.378;2023-07-13T04:16:52;13.70;;;8.50;;
58784;SDS011;44557;51.862;19.378;2023-07-13T04:18:56;11.80;;;8.10;;
58784;SDS011;44557;51.862;19.378;2023-07-13T04:21:00;13.50;;;7.80;;
58784;SDS011;44557;51.862;19.378;2023-07-13T04:23:03;12.10;;;8.10;;
58784;SDS011;44557;51.862;19.378;2023-07-13T04:25:05;16.50;;;8.00;;
58784;SDS011;44557;51.862;19.378;2023-07-13T04:27:07;14.50;;;8.50;;
58784;SDS011;44557;51.862;19.378;2023-07-13T04:29:10;15.60;;;7.50;;
58784;SDS011;44557;51.862;19.378;2023-07-13T04:31:12;15.30;;;8.90;;
58784;SDS011;44557;51.862;19.378;2023-07-13T04:33:14;13.00;;;8.30;;
58784;SDS011;44557;51.862;19.378;2023-07-13T04:35:18;13.30;;;7.80;;
58784;SDS011;44557;51.862;19.378;2023-07-13T04:37:24;12.80;;;8.10;;
58784;SDS011;44557;51.862;19.378;2023-07-13T04:39:27;13.30;;;7.30;;
58784;SDS011;44557;51.862;19.378;2023-07-13T04:41:29;13.10;;;7.50;;
58784;SDS011;44557;51.862;19.378;2023-07-13T04:43:31;9.60;;;6.50;;
58784;SDS011;44557;51.862;19.378;2023-07-13T04:45:34;14.40;;;7.30;;
58784;SDS011;44557;51.862;19.378;2023-07-13T04:47:36;13.30;;;6.80;;
58784;SDS011;44557;51.862;19.378;2023-07-13T04:49:38;10.90;;;7.00;;
58784;SDS011;44557;51.862;19.378;2023-07-13T04:51:42;11.50;;;7.20;;
58784;SDS011;44557;51.862;19.378;2023-07-13T04:53:45;11.80;;;6.90;;
58784;SDS011;44557;51.862;19.378;2023-07-13T04:55:47;13.20;;;7.70;;
58784;SDS011;44557;51.862;19.378;2023-07-13T04:57:49;12.10;;;7.40;;
58784;SDS011;44557;51.862;19.378;2023-07-13T04:59:51;14.50;;;7.30;;
58784;SDS011;44557;51.862;19.378;2023-07-13T05:01:54;9.90;;;7.00;;
58784;SDS011;44557;51.862;19.378;2023-07-13T05:03:56;12.60;;;8.10;;
58784;SDS011;44557;51.862;19.378;2023-07-13T05:06:04;14.80;;;7.40;;
58784;SDS011;44557;51.862;19.378;2023-07-13T05:08:08;10.30;;;7.90;;
58784;SDS011;44557;51.862;19.378;2023-07-13T05:10:10;12.60;;;7.90;;
58784;SDS011;44557;51.862;19.378;2023-07-13T05:12:12;11.50;;;7.50;;
58784;SDS011;44557;51.862;19.378;2023-07-13T05:14:14;9.70;;;7.30;;
58784;SDS011;44557;51.862;19.378;2023-07-13T05:16:17;11.30;;;7.70;;
58784;SDS011;44557;51.862;19.378;2023-07-13T05:18:20;10.30;;;8.20;;
58784;SDS011;44557;51.862;19.378;2023-07-13T05:20:22;13.20;;;8.00;;
58784;SDS011;44557;51.862;19.378;2023-07-13T05:22:24;10.80;;;8.00;;
58784;SDS011;44557;51.862;19.378;2023-07-13T05:24:26;14.10;;;8.90;;
58784;SDS011;44557;51.862;19.378;2023-07-13T05:26:28;10.10;;;7.60;;
58784;SDS011;44557;51.862;19.378;2023-07-13T05:28:30;11.40;;;7.80;;
58784;SDS011;44557;51.862;19.378;2023-07-13T05:30:33;11.40;;;7.70;;
58784;SDS011;44557;51.862;19.378;2023-07-13T07:44:02;7.40;;;4.60;;
58784;SDS011;44557;51.862;19.378;2023-07-13T07:46:05;9.10;;;5.00;;
58784;SDS011;44557;51.862;19.378;2023-07-13T07:48:08;8.20;;;5.50;;
58784;SDS011;44557;51.862;19.378;2023-07-13T07:50:12;7.80;;;5.00;;
58784;SDS011;44557;51.862;19.378;2023-07-13T07:52:14;6.80;;;4.90;;
58784;SDS011;44557;51.862;19.378;2023-07-13T07:54:16;7.50;;;5.50;;
58784;SDS011;44557;51.862;19.378;2023-07-13T07:56:19;9.40;;;5.10;;
58784;SDS011;44557;51.862;19.378;2023-07-13T07:58:21;10.20;;;6.80;;
58784;SDS011;44557;51.862;19.378;2023-07-13T08:00:23;10.00;;;5.70;;
58784;SDS011;44557;51.862;19.378;2023-07-13T08:02:25;7.20;;;4.60;;
58784;SDS011;44557;51.862;19.378;2023-07-13T08:04:27;7.00;;;4.60;;
58784;SDS011;44557;51.862;19.378;2023-07-13T08:06:31;7.70;;;4.80;;
58784;SDS011;44557;51.862;19.378;2023-07-13T08:08:35;7.00;;;4.70;;
58784;SDS011;44557;51.862;19.378;2023-07-13T08:10:37;7.70;;;4.90;;
58784;SDS011;44557;51.862;19.378;2023-07-13T08:12:40;9.80;;;4.80;;
58784;SDS011;44557;51.862;19.378;2023-07-13T08:14:42;7.50;;;4.60;;
58784;SDS011;44557;51.862;19.378;2023-07-13T08:16:44;7.40;;;4.70;;
58784;SDS011;44557;51.862;19.378;2023-07-13T08:18:46;8.50;;;6.00;;
58784;SDS011;44557;51.862;19.378;2023-07-13T08:20:48;10.90;;;7.00;;
58784;SDS011;44557;51.862;19.378;2023-07-13T08:22:49;14.20;;;9.60;;
58784;SDS011;44557;51.862;19.378;2023-07-13T08:24:52;15.30;;;9.80;;
58784;SDS011;44557;51.862;19.378;2023-07-13T08:26:58;11.00;;;9.30;;
58784;SDS011;44557;51.862;19.378;2023-07-13T08:29:01;11.80;;;8.80;;
58784;SDS011;44557;51.862;19.378;2023-07-13T08:31:04;12.20;;;8.60;;
58784;SDS011;44557;51.862;19.378;2023-07-13T08:33:08;13.30;;;8.50;;
58784;SDS011;44557;51.862;19.378;2023-07-13T08:35:11;11.50;;;8.00;;
58784;SDS011;44557;51.862;19.378;2023-07-13T08:37:15;12.20;;;7.80;;
58784;SDS011;44557;51.862;19.378;2023-07-13T08:39:18;10.30;;;6.40;;
58784;SDS011;44557;51.862;19.378;2023-07-13T08:41:21;12.20;;;7.20;;
58784;SDS011;44557;51.862;19.378;2023-07-13T08:43:30;11.70;;;6.50;;
58784;SDS011;44557;51.862;19.378;2023-07-13T08:45:42;10.60;;;5.90;;
58784;SDS011;44557;51.862;19.378;2023-07-13T08:47:57;8.00;;;5.70;;
58784;SDS011;44557;51.862;19.378;2023-07-13T08:50:09;6.90;;;4.80;;
58784;SDS011;44557;51.862;19.378;2023-07-13T08:52:27;8.80;;;5.20;;
58784;SDS011;44557;51.862;19.378;2023-07-13T08:54:38;10.20;;;5.10;;
58784;SDS011;44557;51.862;19.378;2023-07-13T08:56:50;10.70;;;5.00;;
58784;SDS011;44557;51.862;19.378;2023-07-13T08:58:56;9.90;;;4.90;;
58784;SDS011;44557;51.862;19.378;2023-07-13T09:06:20;6.60;;;4.10;;
58784;SDS011;44557;51.862;19.378;2023-07-13T09:08:44;7.50;;;4.20;;
58784;SDS011;44557;51.862;19.378;2023-07-13T09:13:37;8.50;;;4.00;;
58784;SDS011;44557;51.862;19.378;2023-07-13T09:15:50;7.80;;;3.70;;
58784;SDS011;44557;51.862;19.378;2023-07-13T09:17:54;9.10;;;4.40;;
58784;SDS011;44557;51.862;19.378;2023-07-13T09:20:17;8.10;;;3.80;;
58784;SDS011;44557;51.862;19.378;2023-07-13T09:22:34;7.60;;;3.30;;
58784;SDS011;44557;51.862;19.378;2023-07-13T09:27:15;6.10;;;3.30;;
58784;SDS011;44557;51.862;19.378;2023-07-13T09:29:27;6.50;;;3.00;;
58784;SDS011;44557;51.862;19.378;2023-07-13T09:31:32;8.00;;;3.30;;
58784;SDS011;44557;51.862;19.378;2023-07-13T09:33:38;5.50;;;3.20;;
58784;SDS011;44557;51.862;19.378;2023-07-13T09:35:40;9.60;;;3.30;;
58784;SDS011;44557;51.862;19.378;2023-07-13T09:37:43;7.00;;;3.10;;
58784;SDS011;44557;51.862;19.378;2023-07-13T09:39:47;7.80;;;3.10;;
58784;SDS011;44557;51.862;19.378;2023-07-13T09:41:55;6.70;;;3.20;;
58784;SDS011;44557;51.862;19.378;2023-07-13T09:46:20;5.20;;;3.50;;
58784;SDS011;44557;51.862;19.378;2023-07-13T09:48:30;6.80;;;3.10;;
58784;SDS011;44557;51.862;19.378;2023-07-13T09:50:36;6.30;;;2.90;;
58784;SDS011;44557;51.862;19.378;2023-07-13T09:52:46;6.00;;;3.00;;
58784;SDS011;44557;51.862;19.378;2023-07-13T09:54:51;6.40;;;3.20;;
58784;SDS011;44557;51.862;19.378;2023-07-13T09:56:56;6.20;;;3.30;;
58784;SDS011;44557;51.862;19.378;2023-07-13T09:59:00;7.30;;;3.50;;
58784;SDS011;44557;51.862;19.378;2023-07-13T10:01:03;8.00;;;3.40;;
58784;SDS011;44557;51.862;19.378;2023-07-13T10:05:40;5.60;;;3.40;;
58784;SDS011;44557;51.862;19.378;2023-07-13T10:07:44;5.60;;;3.30;;
58784;SDS011;44557;51.862;19.378;2023-07-13T10:09:47;5.10;;;3.00;;
58784;SDS011;44557;51.862;19.378;2023-07-13T10:11:49;6.80;;;3.30;;
58784;SDS011;44557;51.862;19.378;2023-07-13T10:13:54;6.20;;;3.70;;
58784;SDS011;44557;51.862;19.378;2023-07-13T10:15:59;5.10;;;3.10;;
58784;SDS011;44557;51.862;19.378;2023-07-13T10:18:02;6.30;;;3.50;;
58784;SDS011;44557;51.862;19.378;2023-07-13T10:20:04;9.30;;;3.50;;
58784;SDS011;44557;51.862;19.378;2023-07-13T10:24:35;7.00;;;4.40;;
58784;SDS011;44557;51.862;19.378;2023-07-13T10:26:42;7.60;;;4.00;;
58784;SDS011;44557;51.862;19.378;2023-07-13T10:28:49;13.10;;;4.20;;
58784;SDS011;44557;51.862;19.378;2023-07-13T10:30:58;6.50;;;3.90;;
58784;SDS011;44557;51.862;19.378;2023-07-13T10:33:03;10.70;;;4.20;;
58784;SDS011;44557;51.862;19.378;2023-07-13T10:35:14;5.90;;;3.80;;
58784;SDS011;44557;51.862;19.378;2023-07-13T10:37:23;8.00;;;4.10;;
58784;SDS011;44557;51.862;19.378;2023-07-13T10:39:29;6.70;;;3.60;;
58784;SDS011;44557;51.862;19.378;2023-07-13T10:41:34;9.30;;;3.80;;
58784;SDS011;44557;51.862;19.378;2023-07-13T10:43:44;6.30;;;4.00;;
58784;SDS011;44557;51.862;19.378;2023-07-13T10:45:51;6.30;;;3.60;;
58784;SDS011;44557;51.862;19.378;2023-07-13T10:47:55;6.80;;;3.90;;
58784;SDS011;44557;51.862;19.378;2023-07-13T10:49:59;6.80;;;3.80;;
58784;SDS011;44557;51.862;19.378;2023-07-13T10:52:02;7.10;;;3.90;;
58784;SDS011;44557;51.862;19.378;2023-07-13T10:54:16;8.70;;;3.80;;
58784;SDS011;44557;51.862;19.378;2023-07-13T10:56:24;6.70;;;3.50;;
58784;SDS011;44557;51.862;19.378;2023-07-13T10:58:40;8.10;;;3.70;;
58784;SDS011;44557;51.862;19.378;2023-07-13T11:00:53;7.00;;;3.80;;
58784;SDS011;44557;51.862;19.378;2023-07-13T11:03:10;6.70;;;3.70;;
58784;SDS011;44557;51.862;19.378;2023-07-13T11:05:25;6.50;;;3.50;;
58784;SDS011;44557;51.862;19.378;2023-07-13T11:07:30;8.40;;;4.30;;
58784;SDS011;44557;51.862;19.378;2023-07-13T11:09:57;7.00;;;3.80;;
58784;SDS011;44557;51.862;19.378;2023-07-13T11:12:02;5.90;;;4.00;;
58784;SDS011;44557;51.862;19.378;2023-07-13T11:14:27;5.80;;;3.60;;
58784;SDS011;44557;51.862;19.378;2023-07-13T11:16:52;6.80;;;4.20;;
58784;SDS011;44557;51.862;19.378;2023-07-13T11:21:12;7.30;;;4.00;;
58784;SDS011;44557;51.862;19.378;2023-07-13T11:23:26;8.40;;;4.30;;
58784;SDS011;44557;51.862;19.378;2023-07-13T11:25:32;8.70;;;4.30;;
58784;SDS011;44557;51.862;19.378;2023-07-13T11:27:41;7.10;;;4.00;;
58784;SDS011;44557;51.862;19.378;2023-07-13T11:29:46;5.90;;;3.70;;
58784;SDS011;44557;51.862;19.378;2023-07-13T11:31:51;7.10;;;4.10;;
58784;SDS011;44557;51.862;19.378;2023-07-13T11:33:56;6.60;;;3.60;;
58784;SDS011;44557;51.862;19.378;2023-07-13T11:36:02;6.30;;;3.70;;
58784;SDS011;44557;51.862;19.378;2023-07-13T11:38:12;7.00;;;3.90;;
58784;SDS011;44557;51.862;19.378;2023-07-13T11:40:19;6.00;;;3.50;;
58784;SDS011;44557;51.862;19.378;2023-07-13T11:42:29;5.80;;;3.50;;
58784;SDS011;44557;51.862;19.378;2023-07-13T11:44:33;8.20;;;3.70;;
58784;SDS011;44557;51.862;19.378;2023-07-13T11:46:36;5.80;;;3.50;;
58784;SDS011;44557;51.862;19.378;2023-07-13T11:48:38;7.30;;;3.30;;
58784;SDS011;44557;51.862;19.378;2023-07-13T11:50:42;7.20;;;3.40;;
58784;SDS011;44557;51.862;19.378;2023-07-13T11:52:53;5.40;;;3.20;;
58784;SDS011;44557;51.862;19.378;2023-07-13T11:54:58;8.40;;;3.50;;
58784;SDS011;44557;51.862;19.378;2023-07-13T11:57:06;6.30;;;3.40;;
58784;SDS011;44557;51.862;19.378;2023-07-13T11:59:24;6.30;;;3.30;;
58784;SDS011;44557;51.862;19.378;2023-07-13T12:01:28;5.00;;;3.10;;
58784;SDS011;44557;51.862;19.378;2023-07-13T12:03:34;7.20;;;3.00;;
58784;SDS011;44557;51.862;19.378;2023-07-13T12:05:37;6.40;;;3.20;;
58784;SDS011;44557;51.862;19.378;2023-07-13T12:07:39;8.10;;;3.10;;
58784;SDS011;44557;51.862;19.378;2023-07-13T12:09:42;5.80;;;2.80;;
58784;SDS011;44557;51.862;19.378;2023-07-13T12:11:45;5.70;;;3.10;;
58784;SDS011;44557;51.862;19.378;2023-07-13T12:13:47;5.30;;;3.00;;
58784;SDS011;44557;51.862;19.378;2023-07-13T12:15:49;6.40;;;3.00;;
58784;SDS011;44557;51.862;19.378;2023-07-13T12:17:53;6.50;;;2.90;;
58784;SDS011;44557;51.862;19.378;2023-07-13T12:19:55;8.30;;;2.90;;
58784;SDS011;44557;51.862;19.378;2023-07-13T12:21:58;8.80;;;3.10;;
58784;SDS011;44557;51.862;19.378;2023-07-13T12:24:01;6.60;;;3.30;;
58784;SDS011;44557;51.862;19.378;2023-07-13T12:26:06;5.60;;;3.10;;
58784;SDS011;44557;51.862;19.378;2023-07-13T12:28:21;5.80;;;3.40;;
58784;SDS011;44557;51.862;19.378;2023-07-13T12:30:41;5.50;;;3.20;;
58784;SDS011;44557;51.862;19.378;2023-07-13T12:32:43;7.10;;;3.00;;
58784;SDS011;44557;51.862;19.378;2023-07-13T12:35:17;7.20;;;3.40;;
58784;SDS011;44557;51.862;19.378;2023-07-13T12:37:20;8.50;;;3.00;;
58784;SDS011;44557;51.862;19.378;2023-07-13T12:41:37;4.00;;;2.70;;
58784;SDS011;44557;51.862;19.378;2023-07-13T12:43:39;10.80;;;3.30;;
58784;SDS011;44557;51.862;19.378;2023-07-13T12:45:58;5.10;;;3.10;;
58784;SDS011;44557;51.862;19.378;2023-07-13T12:48:06;6.80;;;3.80;;
58784;SDS011;44557;51.862;19.378;2023-07-13T12:50:19;8.90;;;4.70;;
58784;SDS011;44557;51.862;19.378;2023-07-13T12:52:29;5.80;;;3.40;;
58784;SDS011;44557;51.862;19.378;2023-07-13T12:54:38;7.70;;;3.00;;
58784;SDS011;44557;51.862;19.378;2023-07-13T12:56:40;6.10;;;3.30;;
58784;SDS011;44557;51.862;19.378;2023-07-13T12:58:42;8.00;;;3.30;;
58784;SDS011;44557;51.862;19.378;2023-07-13T13:00:48;5.80;;;3.20;;
58784;SDS011;44557;51.862;19.378;2023-07-13T13:02:55;6.30;;;3.20;;
58784;SDS011;44557;51.862;19.378;2023-07-13T13:05:00;6.40;;;3.50;;
58784;SDS011;44557;51.862;19.378;2023-07-13T13:07:08;6.10;;;3.40;;
58784;SDS011;44557;51.862;19.378;2023-07-13T13:09:13;5.30;;;3.20;;
58784;SDS011;44557;51.862;19.378;2023-07-13T13:11:18;8.90;;;4.60;;
58784;SDS011;44557;51.862;19.378;2023-07-13T13:13:21;5.10;;;3.40;;
58784;SDS011;44557;51.862;19.378;2023-07-13T13:15:23;5.00;;;3.30;;
58784;SDS011;44557;51.862;19.378;2023-07-13T13:17:27;6.10;;;3.10;;
58784;SDS011;44557;51.862;19.378;2023-07-13T13:19:33;7.00;;;3.60;;
58784;SDS011;44557;51.862;19.378;2023-07-13T13:21:35;6.70;;;4.00;;
58784;SDS011;44557;51.862;19.378;2023-07-13T13:23:37;6.30;;;4.50;;
58784;SDS011;44557;51.862;19.378;2023-07-13T13:25:40;6.10;;;4.30;;
58784;SDS011;44557;51.862;19.378;2023-07-13T13:27:43;7.00;;;4.30;;
58784;SDS011;44557;51.862;19.378;2023-07-13T13:29:51;6.90;;;4.60;;
58784;SDS011;44557;51.862;19.378;2023-07-13T13:31:54;6.20;;;3.10;;
58784;SDS011;44557;51.862;19.378;2023-07-13T13:33:57;5.80;;;3.10;;
58784;SDS011;44557;51.862;19.378;2023-07-13T13:35:59;5.80;;;3.20;;
58784;SDS011;44557;51.862;19.378;2023-07-13T13:38:02;6.20;;;3.20;;
58784;SDS011;44557;51.862;19.378;2023-07-13T13:40:17;4.80;;;2.90;;
58784;SDS011;44557;51.862;19.378;2023-07-13T13:42:20;5.90;;;3.00;;
58784;SDS011;44557;51.862;19.378;2023-07-13T13:44:26;5.80;;;3.10;;
58784;SDS011;44557;51.862;19.378;2023-07-13T13:46:27;5.10;;;3.00;;
58784;SDS011;44557;51.862;19.378;2023-07-13T13:48:32;7.00;;;3.20;;
58784;SDS011;44557;51.862;19.378;2023-07-13T13:50:35;5.50;;;3.30;;
58784;SDS011;44557;51.862;19.378;2023-07-13T13:52:37;5.40;;;3.50;;
58784;SDS011;44557;51.862;19.378;2023-07-13T13:54:40;5.30;;;2.50;;
58784;SDS011;44557;51.862;19.378;2023-07-13T13:56:44;6.10;;;2.80;;
58784;SDS011;44557;51.862;19.378;2023-07-13T13:58:47;6.40;;;3.20;;
58784;SDS011;44557;51.862;19.378;2023-07-13T14:00:51;6.50;;;2.90;;
58784;SDS011;44557;51.862;19.378;2023-07-13T14:02:54;6.50;;;3.00;;
58784;SDS011;44557;51.862;19.378;2023-07-13T14:05:00;7.00;;;3.10;;
58784;SDS011;44557;51.862;19.378;2023-07-13T14:07:04;7.20;;;4.30;;
58784;SDS011;44557;51.862;19.378;2023-07-13T14:09:08;5.80;;;3.50;;
58784;SDS011;44557;51.862;19.378;2023-07-13T14:11:14;6.30;;;2.90;;
58784;SDS011;44557;51.862;19.378;2023-07-13T14:13:20;6.30;;;3.90;;
58784;SDS011;44557;51.862;19.378;2023-07-13T14:15:26;6.00;;;3.00;;
58784;SDS011;44557;51.862;19.378;2023-07-13T14:17:29;5.00;;;2.70;;
58784;SDS011;44557;51.862;19.378;2023-07-13T14:19:32;4.40;;;2.90;;
58784;SDS011;44557;51.862;19.378;2023-07-13T14:21:33;5.60;;;3.10;;
58784;SDS011;44557;51.862;19.378;2023-07-13T14:23:35;4.60;;;3.00;;
58784;SDS011;44557;51.862;19.378;2023-07-13T14:25:37;4.60;;;2.70;;
58784;SDS011;44557;51.862;19.378;2023-07-13T14:27:40;4.70;;;3.30;;
58784;SDS011;44557;51.862;19.378;2023-07-13T14:29:42;4.90;;;2.90;;
58784;SDS011;44557;51.862;19.378;2023-07-13T14:31:44;4.80;;;2.80;;
58784;SDS011;44557;51.862;19.378;2023-07-13T14:33:47;5.10;;;3.20;;
58784;SDS011;44557;51.862;19.378;2023-07-13T14:35:50;5.90;;;3.50;;
58784;SDS011;44557;51.862;19.378;2023-07-13T14:37:53;6.10;;;3.50;;
58784;SDS011;44557;51.862;19.378;2023-07-13T14:39:55;6.10;;;3.70;;
58784;SDS011;44557;51.862;19.378;2023-07-13T14:41:57;5.70;;;3.80;;
58784;SDS011;44557;51.862;19.378;2023-07-13T14:44:01;9.00;;;5.20;;
58784;SDS011;44557;51.862;19.378;2023-07-13T14:46:03;8.00;;;6.30;;
58784;SDS011;44557;51.862;19.378;2023-07-13T14:48:10;5.90;;;3.20;;
58784;SDS011;44557;51.862;19.378;2023-07-13T14:50:26;5.60;;;3.50;;
58784;SDS011;44557;51.862;19.378;2023-07-13T14:52:34;5.30;;;3.10;;